sensor_id;sensor_type;location;lat;lon;timestamp;P1;durP1;ratioP1;P2;durP2;ratioP2
80117;SDS011;69424;48.770;-1.564;2023-04-25T00:00:25;10.70;;;2.30;;
80117;SDS011;69424;48.770;-1.564;2023-04-25T00:03:13;8.30;;;2.10;;
80117;SDS011;69424;48.770;-1.564;2023-04-25T00:05:42;6.60;;;1.60;;
80117;SDS011;69424;48.770;-1.564;2023-04-25T00:08:10;3.80;;;1.60;;
80117;SDS011;69424;48.770;-1.564;2023-04-25T00:10:38;5.00;;;1.40;;
80117;SDS011;69424;48.770;-1.564;2023-04-25T00:13:07;4.90;;;1.60;;
80117;SDS011;69424;48.770;-1.564;2023-04-25T00:15:36;9.90;;;2.40;;
80117;SDS011;69424;48.770;-1.564;2023-04-25T00:18:05;9.20;;;1.90;;
80117;SDS011;69424;48.770;-1.564;2023-04-25T00:20:35;8.30;;;3.00;;
80117;SDS011;69424;48.770;-1.564;2023-04-25T00:23:05;7.00;;;2.00;;
80117;SDS011;69424;48.770;-1.564;2023-04-25T00:25:33;8.30;;;2.10;;
80117;SDS011;69424;48.770;-1.564;2023-04-25T00:28:01;15.00;;;2.10;;
80117;SDS011;69424;48.770;-1.564;2023-04-25T00:30:30;3.70;;;1.50;;
80117;SDS011;69424;48.770;-1.564;2023-04-25T00:32:58;7.60;;;1.80;;
80117;SDS011;69424;48.770;-1.564;2023-04-25T00:35:26;5.30;;;1.70;;
80117;SDS011;69424;48.770;-1.564;2023-04-25T00:37:54;6.00;;;1.50;;
80117;SDS011;69424;48.770;-1.564;2023-04-25T00:40:23;6.80;;;1.90;;
80117;SDS011;69424;48.770;-1.564;2023-04-25T00:42:52;8.10;;;1.60;;
80117;SDS011;69424;48.770;-1.564;2023-04-25T00:45:20;4.00;;;1.30;;
80117;SDS011;69424;48.770;-1.564;2023-04-25T00:47:49;3.70;;;1.20;;
80117;SDS011;69424;48.770;-1.564;2023-04-25T00:50:18;2.00;;;0.80;;
80117;SDS011;69424;48.770;-1.564;2023-04-25T00:52:46;3.90;;;1.20;;
80117;SDS011;69424;48.770;-1.564;2023-04-25T00:55:14;4.00;;;1.20;;
80117;SDS011;69424;48.770;-1.564;2023-04-25T00:57:43;5.90;;;1.40;;
80117;SDS011;69424;48.770;-1.564;2023-04-25T01:00:12;3.40;;;1.30;;
80117;SDS011;69424;48.770;-1.564;2023-04-25T01:02:42;6.10;;;1.80;;
80117;SDS011;69424;48.770;-1.564;2023-04-25T01:05:12;4.60;;;1.30;;
80117;SDS011;69424;48.770;-1.564;2023-04-25T01:07:41;2.50;;;1.00;;
80117;SDS011;69424;48.770;-1.564;2023-04-25T01:10:09;1.40;;;1.30;;
80117;SDS011;69424;48.770;-1.564;2023-04-25T01:12:38;4.00;;;1.40;;
80117;SDS011;69424;48.770;-1.564;2023-04-25T01:15:06;9.70;;;2.00;;
80117;SDS011;69424;48.770;-1.564;2023-04-25T01:17:35;10.60;;;1.70;;
80117;SDS011;69424;48.770;-1.564;2023-04-25T01:20:03;3.60;;;2.00;;
80117;SDS011;69424;48.770;-1.564;2023-04-25T01:22:33;9.40;;;1.80;;
80117;SDS011;69424;48.770;-1.564;2023-04-25T01:25:02;5.60;;;2.20;;
80117;SDS011;69424;48.770;-1.564;2023-04-25T01:27:31;5.30;;;1.80;;
80117;SDS011;69424;48.770;-1.564;2023-04-25T01:30:03;5.80;;;1.60;;
80117;SDS011;69424;48.770;-1.564;2023-04-25T01:32:33;9.10;;;2.30;;
80117;SDS011;69424;48.770;-1.564;2023-04-25T01:35:09;4.60;;;1.80;;
80117;SDS011;69424;48.770;-1.564;2023-04-25T01:37:40;5.00;;;2.00;;
80117;SDS011;69424;48.770;-1.564;2023-04-25T01:40:11;4.40;;;2.20;;
80117;SDS011;69424;48.770;-1.564;2023-04-25T01:42:41;3.80;;;1.60;;
80117;SDS011;69424;48.770;-1.564;2023-04-25T01:45:12;4.20;;;1.80;;
80117;SDS011;69424;48.770;-1.564;2023-04-25T01:47:40;4.30;;;1.90;;
80117;SDS011;69424;48.770;-1.564;2023-04-25T01:50:10;3.50;;;1.70;;
80117;SDS011;69424;48.770;-1.564;2023-04-25T01:52:39;4.90;;;1.50;;
80117;SDS011;69424;48.770;-1.564;2023-04-25T01:55:08;3.10;;;1.50;;
80117;SDS011;69424;48.770;-1.564;2023-04-25T01:57:40;4.50;;;2.00;;
80117;SDS011;69424;48.770;-1.564;2023-04-25T02:00:08;5.40;;;2.20;;
80117;SDS011;69424;48.770;-1.564;2023-04-25T02:02:41;5.30;;;2.00;;
80117;SDS011;69424;48.770;-1.564;2023-04-25T02:05:27;5.10;;;2.10;;
80117;SDS011;69424;48.770;-1.564;2023-04-25T02:07:55;4.80;;;2.10;;
80117;SDS011;69424;48.770;-1.564;2023-04-25T02:10:25;5.20;;;1.60;;
80117;SDS011;69424;48.770;-1.564;2023-04-25T02:13:14;5.60;;;1.90;;
80117;SDS011;69424;48.770;-1.564;2023-04-25T02:16:14;4.10;;;2.20;;
80117;SDS011;69424;48.770;-1.564;2023-04-25T02:18:43;5.50;;;2.20;;
80117;SDS011;69424;48.770;-1.564;2023-04-25T02:21:12;4.10;;;1.60;;
80117;SDS011;69424;48.770;-1.564;2023-04-25T02:23:40;5.70;;;2.10;;
80117;SDS011;69424;48.770;-1.564;2023-04-25T02:26:08;4.70;;;1.90;;
80117;SDS011;69424;48.770;-1.564;2023-04-25T02:28:38;4.70;;;1.80;;
80117;SDS011;69424;48.770;-1.564;2023-04-25T02:31:07;4.90;;;1.90;;
80117;SDS011;69424;48.770;-1.564;2023-04-25T02:33:35;8.30;;;2.70;;
80117;SDS011;69424;48.770;-1.564;2023-04-25T02:36:05;4.90;;;2.20;;
80117;SDS011;69424;48.770;-1.564;2023-04-25T02:38:34;8.00;;;3.60;;
80117;SDS011;69424;48.770;-1.564;2023-04-25T02:41:03;5.60;;;2.80;;
80117;SDS011;69424;48.770;-1.564;2023-04-25T02:43:31;6.70;;;2.50;;
80117;SDS011;69424;48.770;-1.564;2023-04-25T02:45:59;6.50;;;2.70;;
80117;SDS011;69424;48.770;-1.564;2023-04-25T02:48:27;5.50;;;2.40;;
80117;SDS011;69424;48.770;-1.564;2023-04-25T02:50:56;4.90;;;2.50;;
80117;SDS011;69424;48.770;-1.564;2023-04-25T02:53:25;9.50;;;2.50;;
80117;SDS011;69424;48.770;-1.564;2023-04-25T02:55:53;5.70;;;2.60;;
80117;SDS011;69424;48.770;-1.564;2023-04-25T02:58:21;8.60;;;2.70;;
80117;SDS011;69424;48.770;-1.564;2023-04-25T03:00:51;6.80;;;2.80;;
80117;SDS011;69424;48.770;-1.564;2023-04-25T03:03:20;8.00;;;3.10;;
80117;SDS011;69424;48.770;-1.564;2023-04-25T03:05:51;7.40;;;2.90;;
80117;SDS011;69424;48.770;-1.564;2023-04-25T03:08:28;3.60;;;2.60;;
80117;SDS011;69424;48.770;-1.564;2023-04-25T03:11:00;4.00;;;2.50;;
80117;SDS011;69424;48.770;-1.564;2023-04-25T03:13:29;5.50;;;2.80;;
80117;SDS011;69424;48.770;-1.564;2023-04-25T03:15:57;6.80;;;3.00;;
80117;SDS011;69424;48.770;-1.564;2023-04-25T03:18:25;7.90;;;2.40;;
80117;SDS011;69424;48.770;-1.564;2023-04-25T03:20:55;7.00;;;2.70;;
80117;SDS011;69424;48.770;-1.564;2023-04-25T03:23:24;5.30;;;2.70;;
80117;SDS011;69424;48.770;-1.564;2023-04-25T03:25:52;7.70;;;2.90;;
80117;SDS011;69424;48.770;-1.564;2023-04-25T03:28:20;4.50;;;3.00;;
80117;SDS011;69424;48.770;-1.564;2023-04-25T03:30:48;6.40;;;2.90;;
80117;SDS011;69424;48.770;-1.564;2023-04-25T03:33:16;9.30;;;3.80;;
80117;SDS011;69424;48.770;-1.564;2023-04-25T03:35:44;5.00;;;2.50;;
80117;SDS011;69424;48.770;-1.564;2023-04-25T03:38:13;5.20;;;2.70;;
80117;SDS011;69424;48.770;-1.564;2023-04-25T03:40:41;5.40;;;2.70;;
80117;SDS011;69424;48.770;-1.564;2023-04-25T03:43:32;7.30;;;3.10;;
80117;SDS011;69424;48.770;-1.564;2023-04-25T03:46:03;7.10;;;3.20;;
80117;SDS011;69424;48.770;-1.564;2023-04-25T03:48:32;9.00;;;3.40;;
80117;SDS011;69424;48.770;-1.564;2023-04-25T03:51:00;4.90;;;2.70;;
80117;SDS011;69424;48.770;-1.564;2023-04-25T03:53:29;8.90;;;3.80;;
80117;SDS011;69424;48.770;-1.564;2023-04-25T03:56:15;5.40;;;3.10;;
80117;SDS011;69424;48.770;-1.564;2023-04-25T03:58:44;4.50;;;3.10;;
80117;SDS011;69424;48.770;-1.564;2023-04-25T04:01:13;5.60;;;2.70;;
80117;SDS011;69424;48.770;-1.564;2023-04-25T04:03:41;6.70;;;2.60;;
80117;SDS011;69424;48.770;-1.564;2023-04-25T04:06:10;3.70;;;2.40;;
80117;SDS011;69424;48.770;-1.564;2023-04-25T04:08:44;5.80;;;2.90;;
80117;SDS011;69424;48.770;-1.564;2023-04-25T04:11:12;6.20;;;3.20;;
80117;SDS011;69424;48.770;-1.564;2023-04-25T04:13:40;4.40;;;2.20;;
80117;SDS011;69424;48.770;-1.564;2023-04-25T04:16:08;6.00;;;2.60;;
80117;SDS011;69424;48.770;-1.564;2023-04-25T04:18:38;6.20;;;2.90;;
80117;SDS011;69424;48.770;-1.564;2023-04-25T04:21:06;4.30;;;2.60;;
80117;SDS011;69424;48.770;-1.564;2023-04-25T04:23:37;6.90;;;2.90;;
80117;SDS011;69424;48.770;-1.564;2023-04-25T04:26:07;3.80;;;2.30;;
80117;SDS011;69424;48.770;-1.564;2023-04-25T04:28:54;8.00;;;2.60;;
80117;SDS011;69424;48.770;-1.564;2023-04-25T04:31:34;8.80;;;2.60;;
80117;SDS011;69424;48.770;-1.564;2023-04-25T04:34:02;6.50;;;2.60;;
80117;SDS011;69424;48.770;-1.564;2023-04-25T04:36:31;7.40;;;3.30;;
80117;SDS011;69424;48.770;-1.564;2023-04-25T04:38:59;6.10;;;4.10;;
80117;SDS011;69424;48.770;-1.564;2023-04-25T04:41:49;14.30;;;10.90;;
80117;SDS011;69424;48.770;-1.564;2023-04-25T04:44:37;7.40;;;4.00;;
80117;SDS011;69424;48.770;-1.564;2023-04-25T04:47:27;7.40;;;3.60;;
80117;SDS011;69424;48.770;-1.564;2023-04-25T04:50:18;9.00;;;4.30;;
80117;SDS011;69424;48.770;-1.564;2023-04-25T04:53:19;7.50;;;5.60;;
80117;SDS011;69424;48.770;-1.564;2023-04-25T04:55:49;8.80;;;5.00;;
80117;SDS011;69424;48.770;-1.564;2023-04-25T04:58:36;11.00;;;4.30;;
80117;SDS011;69424;48.770;-1.564;2023-04-25T05:01:25;12.20;;;4.90;;
80117;SDS011;69424;48.770;-1.564;2023-04-25T05:04:07;12.70;;;4.80;;
80117;SDS011;69424;48.770;-1.564;2023-04-25T05:07:08;14.10;;;6.20;;
80117;SDS011;69424;48.770;-1.564;2023-04-25T05:09:43;13.20;;;5.30;;
80117;SDS011;69424;48.770;-1.564;2023-04-25T05:12:32;10.90;;;6.00;;
80117;SDS011;69424;48.770;-1.564;2023-04-25T05:15:21;11.00;;;5.40;;
80117;SDS011;69424;48.770;-1.564;2023-04-25T05:18:07;9.50;;;4.30;;
80117;SDS011;69424;48.770;-1.564;2023-04-25T05:20:45;8.80;;;4.20;;
80117;SDS011;69424;48.770;-1.564;2023-04-25T05:23:25;9.90;;;4.30;;
80117;SDS011;69424;48.770;-1.564;2023-04-25T05:25:55;8.90;;;4.40;;
80117;SDS011;69424;48.770;-1.564;2023-04-25T05:31:42;8.50;;;4.50;;
80117;SDS011;69424;48.770;-1.564;2023-04-25T05:36:51;9.50;;;3.50;;
80117;SDS011;69424;48.770;-1.564;2023-04-25T05:39:19;10.90;;;4.10;;
80117;SDS011;69424;48.770;-1.564;2023-04-25T05:42:07;11.60;;;3.90;;
80117;SDS011;69424;48.770;-1.564;2023-04-25T05:44:54;6.80;;;3.50;;
80117;SDS011;69424;48.770;-1.564;2023-04-25T05:47:42;5.00;;;2.90;;
80117;SDS011;69424;48.770;-1.564;2023-04-25T05:50:24;10.70;;;4.00;;
80117;SDS011;69424;48.770;-1.564;2023-04-25T05:53:01;8.10;;;3.00;;
80117;SDS011;69424;48.770;-1.564;2023-04-25T05:58:10;12.60;;;4.50;;
80117;SDS011;69424;48.770;-1.564;2023-04-25T06:00:38;8.10;;;3.30;;
80117;SDS011;69424;48.770;-1.564;2023-04-25T06:03:09;7.30;;;3.20;;
80117;SDS011;69424;48.770;-1.564;2023-04-25T06:05:38;8.10;;;3.20;;
80117;SDS011;69424;48.770;-1.564;2023-04-25T06:08:06;6.60;;;2.90;;
80117;SDS011;69424;48.770;-1.564;2023-04-25T06:10:34;6.30;;;3.20;;
80117;SDS011;69424;48.770;-1.564;2023-04-25T06:13:02;9.20;;;3.20;;
80117;SDS011;69424;48.770;-1.564;2023-04-25T06:15:33;8.10;;;2.90;;
80117;SDS011;69424;48.770;-1.564;2023-04-25T06:18:01;7.60;;;2.80;;
80117;SDS011;69424;48.770;-1.564;2023-04-25T06:20:30;8.10;;;3.20;;
80117;SDS011;69424;48.770;-1.564;2023-04-25T06:22:59;8.00;;;3.00;;
80117;SDS011;69424;48.770;-1.564;2023-04-25T06:25:44;8.00;;;2.60;;
80117;SDS011;69424;48.770;-1.564;2023-04-25T06:28:13;8.40;;;3.80;;
80117;SDS011;69424;48.770;-1.564;2023-04-25T06:30:42;6.20;;;3.10;;
80117;SDS011;69424;48.770;-1.564;2023-04-25T06:33:13;8.40;;;3.00;;
80117;SDS011;69424;48.770;-1.564;2023-04-25T06:35:42;9.90;;;3.00;;
80117;SDS011;69424;48.770;-1.564;2023-04-25T06:38:12;9.80;;;3.70;;
80117;SDS011;69424;48.770;-1.564;2023-04-25T06:40:43;10.00;;;3.50;;
80117;SDS011;69424;48.770;-1.564;2023-04-25T06:43:12;11.70;;;3.20;;
80117;SDS011;69424;48.770;-1.564;2023-04-25T06:45:59;8.60;;;3.50;;
80117;SDS011;69424;48.770;-1.564;2023-04-25T06:48:29;8.80;;;2.70;;
80117;SDS011;69424;48.770;-1.564;2023-04-25T06:50:58;9.90;;;3.10;;
80117;SDS011;69424;48.770;-1.564;2023-04-25T06:53:26;7.50;;;2.90;;
80117;SDS011;69424;48.770;-1.564;2023-04-25T06:55:58;10.90;;;3.20;;
80117;SDS011;69424;48.770;-1.564;2023-04-25T06:58:34;6.30;;;3.10;;
80117;SDS011;69424;48.770;-1.564;2023-04-25T07:01:13;13.10;;;3.40;;
80117;SDS011;69424;48.770;-1.564;2023-04-25T07:03:42;9.70;;;3.30;;
80117;SDS011;69424;48.770;-1.564;2023-04-25T07:06:14;5.00;;;3.10;;
80117;SDS011;69424;48.770;-1.564;2023-04-25T07:08:43;6.50;;;3.80;;
80117;SDS011;69424;48.770;-1.564;2023-04-25T07:11:11;7.60;;;3.10;;
80117;SDS011;69424;48.770;-1.564;2023-04-25T07:13:39;8.20;;;3.20;;
80117;SDS011;69424;48.770;-1.564;2023-04-25T07:16:08;5.90;;;2.60;;
80117;SDS011;69424;48.770;-1.564;2023-04-25T07:18:36;7.00;;;2.60;;
80117;SDS011;69424;48.770;-1.564;2023-04-25T07:21:04;6.00;;;2.80;;
80117;SDS011;69424;48.770;-1.564;2023-04-25T07:23:33;10.90;;;2.90;;
80117;SDS011;69424;48.770;-1.564;2023-04-25T07:26:05;6.80;;;2.60;;
80117;SDS011;69424;48.770;-1.564;2023-04-25T07:28:34;7.50;;;2.90;;
80117;SDS011;69424;48.770;-1.564;2023-04-25T07:31:02;8.90;;;2.90;;
80117;SDS011;69424;48.770;-1.564;2023-04-25T07:33:32;9.80;;;2.80;;
80117;SDS011;69424;48.770;-1.564;2023-04-25T07:36:02;4.20;;;2.00;;
80117;SDS011;69424;48.770;-1.564;2023-04-25T07:38:30;6.90;;;3.10;;
80117;SDS011;69424;48.770;-1.564;2023-04-25T07:40:58;21.70;;;3.40;;
80117;SDS011;69424;48.770;-1.564;2023-04-25T07:43:27;7.70;;;2.60;;
80117;SDS011;69424;48.770;-1.564;2023-04-25T07:45:58;7.60;;;3.10;;
80117;SDS011;69424;48.770;-1.564;2023-04-25T07:48:27;8.50;;;2.20;;
80117;SDS011;69424;48.770;-1.564;2023-04-25T07:50:56;7.00;;;2.70;;
80117;SDS011;69424;48.770;-1.564;2023-04-25T07:53:23;8.50;;;1.90;;
80117;SDS011;69424;48.770;-1.564;2023-04-25T07:55:54;4.80;;;2.20;;
80117;SDS011;69424;48.770;-1.564;2023-04-25T07:58:23;6.10;;;2.10;;
80117;SDS011;69424;48.770;-1.564;2023-04-25T08:00:55;6.10;;;2.60;;
80117;SDS011;69424;48.770;-1.564;2023-04-25T08:03:43;5.40;;;2.10;;
80117;SDS011;69424;48.770;-1.564;2023-04-25T08:06:16;4.20;;;1.70;;
80117;SDS011;69424;48.770;-1.564;2023-04-25T08:08:51;6.90;;;2.00;;
80117;SDS011;69424;48.770;-1.564;2023-04-25T08:11:20;4.40;;;2.10;;
80117;SDS011;69424;48.770;-1.564;2023-04-25T08:13:49;5.30;;;1.70;;
80117;SDS011;69424;48.770;-1.564;2023-04-25T08:16:18;6.80;;;2.10;;
80117;SDS011;69424;48.770;-1.564;2023-04-25T08:18:46;6.80;;;2.00;;
80117;SDS011;69424;48.770;-1.564;2023-04-25T08:21:14;7.10;;;2.20;;
80117;SDS011;69424;48.770;-1.564;2023-04-25T08:23:43;3.00;;;1.80;;
80117;SDS011;69424;48.770;-1.564;2023-04-25T08:26:16;7.00;;;2.50;;
80117;SDS011;69424;48.770;-1.564;2023-04-25T08:28:44;5.90;;;2.10;;
80117;SDS011;69424;48.770;-1.564;2023-04-25T08:31:11;9.40;;;2.90;;
80117;SDS011;69424;48.770;-1.564;2023-04-25T08:33:48;8.80;;;2.60;;
80117;SDS011;69424;48.770;-1.564;2023-04-25T08:36:24;7.10;;;2.30;;
80117;SDS011;69424;48.770;-1.564;2023-04-25T08:39:14;10.90;;;2.80;;
80117;SDS011;69424;48.770;-1.564;2023-04-25T08:41:49;7.60;;;2.60;;
80117;SDS011;69424;48.770;-1.564;2023-04-25T08:44:18;9.40;;;2.60;;
80117;SDS011;69424;48.770;-1.564;2023-04-25T08:46:48;7.40;;;2.20;;
80117;SDS011;69424;48.770;-1.564;2023-04-25T08:49:26;5.90;;;2.30;;
80117;SDS011;69424;48.770;-1.564;2023-04-25T08:51:55;12.20;;;3.10;;
80117;SDS011;69424;48.770;-1.564;2023-04-25T08:54:27;6.70;;;2.30;;
80117;SDS011;69424;48.770;-1.564;2023-04-25T08:57:04;7.20;;;2.10;;
80117;SDS011;69424;48.770;-1.564;2023-04-25T08:59:33;8.00;;;2.10;;
80117;SDS011;69424;48.770;-1.564;2023-04-25T09:02:05;6.40;;;1.80;;
80117;SDS011;69424;48.770;-1.564;2023-04-25T09:04:34;4.60;;;1.80;;
80117;SDS011;69424;48.770;-1.564;2023-04-25T09:07:03;5.10;;;1.70;;
80117;SDS011;69424;48.770;-1.564;2023-04-25T09:09:31;6.90;;;2.00;;
80117;SDS011;69424;48.770;-1.564;2023-04-25T09:11:59;7.50;;;1.70;;
80117;SDS011;69424;48.770;-1.564;2023-04-25T09:14:29;6.20;;;2.10;;
80117;SDS011;69424;48.770;-1.564;2023-04-25T09:17:11;5.70;;;2.10;;
80117;SDS011;69424;48.770;-1.564;2023-04-25T09:22:22;4.30;;;1.80;;
80117;SDS011;69424;48.770;-1.564;2023-04-25T09:24:51;6.00;;;2.00;;
80117;SDS011;69424;48.770;-1.564;2023-04-25T09:27:20;7.70;;;2.00;;
80117;SDS011;69424;48.770;-1.564;2023-04-25T09:30:15;11.00;;;2.50;;
80117;SDS011;69424;48.770;-1.564;2023-04-25T09:33:07;8.70;;;1.80;;
80117;SDS011;69424;48.770;-1.564;2023-04-25T09:35:38;6.80;;;1.80;;
80117;SDS011;69424;48.770;-1.564;2023-04-25T09:41:05;9.50;;;3.30;;
80117;SDS011;69424;48.770;-1.564;2023-04-25T09:43:38;7.30;;;2.30;;
80117;SDS011;69424;48.770;-1.564;2023-04-25T09:46:10;9.90;;;2.00;;
80117;SDS011;69424;48.770;-1.564;2023-04-25T09:48:49;8.40;;;2.00;;
80117;SDS011;69424;48.770;-1.564;2023-04-25T09:51:25;5.60;;;1.50;;
80117;SDS011;69424;48.770;-1.564;2023-04-25T09:53:58;8.30;;;2.10;;
80117;SDS011;69424;48.770;-1.564;2023-04-25T09:56:55;8.30;;;2.50;;
80117;SDS011;69424;48.770;-1.564;2023-04-25T09:59:27;9.90;;;2.40;;
80117;SDS011;69424;48.770;-1.564;2023-04-25T10:01:59;8.50;;;2.30;;
80117;SDS011;69424;48.770;-1.564;2023-04-25T10:07:17;8.50;;;2.20;;
80117;SDS011;69424;48.770;-1.564;2023-04-25T10:09:47;8.90;;;1.90;;
80117;SDS011;69424;48.770;-1.564;2023-04-25T10:12:19;6.00;;;1.70;;
80117;SDS011;69424;48.770;-1.564;2023-04-25T10:14:47;7.30;;;2.40;;
80117;SDS011;69424;48.770;-1.564;2023-04-25T10:17:15;8.30;;;2.40;;
80117;SDS011;69424;48.770;-1.564;2023-04-25T10:19:46;6.90;;;2.30;;
80117;SDS011;69424;48.770;-1.564;2023-04-25T10:22:18;7.40;;;2.40;;
80117;SDS011;69424;48.770;-1.564;2023-04-25T10:24:53;8.40;;;2.80;;
80117;SDS011;69424;48.770;-1.564;2023-04-25T10:27:25;8.30;;;2.50;;
80117;SDS011;69424;48.770;-1.564;2023-04-25T10:30:06;8.80;;;2.80;;
80117;SDS011;69424;48.770;-1.564;2023-04-25T10:32:43;7.40;;;2.30;;
80117;SDS011;69424;48.770;-1.564;2023-04-25T10:35:17;11.10;;;2.50;;
80117;SDS011;69424;48.770;-1.564;2023-04-25T10:41:04;13.30;;;6.50;;
80117;SDS011;69424;48.770;-1.564;2023-04-25T10:43:36;11.40;;;5.30;;
80117;SDS011;69424;48.770;-1.564;2023-04-25T10:46:40;7.80;;;2.60;;
80117;SDS011;69424;48.770;-1.564;2023-04-25T10:49:02;6.80;;;2.40;;
80117;SDS011;69424;48.770;-1.564;2023-04-25T10:51:31;9.00;;;2.30;;
80117;SDS011;69424;48.770;-1.564;2023-04-25T10:54:21;6.00;;;2.00;;
80117;SDS011;69424;48.770;-1.564;2023-04-25T10:56:50;5.70;;;2.50;;
80117;SDS011;69424;48.770;-1.564;2023-04-25T10:59:19;11.20;;;2.40;;
80117;SDS011;69424;48.770;-1.564;2023-04-25T11:01:51;8.60;;;2.90;;
80117;SDS011;69424;48.770;-1.564;2023-04-25T11:07:07;10.10;;;3.10;;
80117;SDS011;69424;48.770;-1.564;2023-04-25T11:09:41;6.80;;;2.50;;
80117;SDS011;69424;48.770;-1.564;2023-04-25T11:12:09;5.50;;;2.20;;
80117;SDS011;69424;48.770;-1.564;2023-04-25T11:15:00;8.80;;;2.70;;
80117;SDS011;69424;48.770;-1.564;2023-04-25T11:17:32;6.60;;;2.60;;
80117;SDS011;69424;48.770;-1.564;2023-04-25T11:20:01;6.40;;;2.10;;
80117;SDS011;69424;48.770;-1.564;2023-04-25T11:22:34;6.30;;;2.40;;
80117;SDS011;69424;48.770;-1.564;2023-04-25T11:25:05;7.10;;;2.50;;
80117;SDS011;69424;48.770;-1.564;2023-04-25T11:27:37;9.80;;;2.60;;
80117;SDS011;69424;48.770;-1.564;2023-04-25T11:30:26;8.90;;;3.00;;
80117;SDS011;69424;48.770;-1.564;2023-04-25T11:32:54;6.90;;;2.40;;
80117;SDS011;69424;48.770;-1.564;2023-04-25T11:35:23;6.00;;;2.30;;
80117;SDS011;69424;48.770;-1.564;2023-04-25T11:37:53;9.90;;;2.20;;
80117;SDS011;69424;48.770;-1.564;2023-04-25T11:40:21;8.90;;;3.40;;
80117;SDS011;69424;48.770;-1.564;2023-04-25T11:42:49;7.60;;;2.30;;
80117;SDS011;69424;48.770;-1.564;2023-04-25T11:45:22;6.70;;;2.20;;
80117;SDS011;69424;48.770;-1.564;2023-04-25T11:47:51;8.10;;;2.40;;
80117;SDS011;69424;48.770;-1.564;2023-04-25T11:50:19;6.50;;;2.60;;
80117;SDS011;69424;48.770;-1.564;2023-04-25T11:52:48;6.10;;;2.40;;
80117;SDS011;69424;48.770;-1.564;2023-04-25T11:55:19;6.00;;;2.40;;
80117;SDS011;69424;48.770;-1.564;2023-04-25T11:57:48;7.70;;;2.10;;
80117;SDS011;69424;48.770;-1.564;2023-04-25T12:00:20;5.60;;;2.50;;
80117;SDS011;69424;48.770;-1.564;2023-04-25T12:02:53;10.20;;;2.90;;
80117;SDS011;69424;48.770;-1.564;2023-04-25T12:05:26;7.70;;;3.10;;
80117;SDS011;69424;48.770;-1.564;2023-04-25T12:08:10;9.70;;;3.10;;
80117;SDS011;69424;48.770;-1.564;2023-04-25T12:10:40;8.00;;;3.00;;
80117;SDS011;69424;48.770;-1.564;2023-04-25T12:13:22;7.20;;;2.20;;
80117;SDS011;69424;48.770;-1.564;2023-04-25T12:15:54;9.90;;;2.60;;
80117;SDS011;69424;48.770;-1.564;2023-04-25T12:18:23;7.90;;;2.40;;
80117;SDS011;69424;48.770;-1.564;2023-04-25T12:20:55;9.00;;;2.80;;
80117;SDS011;69424;48.770;-1.564;2023-04-25T12:23:27;10.70;;;3.20;;
80117;SDS011;69424;48.770;-1.564;2023-04-25T12:25:56;7.10;;;3.00;;
80117;SDS011;69424;48.770;-1.564;2023-04-25T12:28:25;7.50;;;2.60;;
80117;SDS011;69424;48.770;-1.564;2023-04-25T12:31:00;11.00;;;3.20;;
80117;SDS011;69424;48.770;-1.564;2023-04-25T12:33:30;7.90;;;2.60;;
80117;SDS011;69424;48.770;-1.564;2023-04-25T12:36:00;6.90;;;2.80;;
80117;SDS011;69424;48.770;-1.564;2023-04-25T12:38:40;6.80;;;2.40;;
80117;SDS011;69424;48.770;-1.564;2023-04-25T12:41:09;4.90;;;2.70;;
80117;SDS011;69424;48.770;-1.564;2023-04-25T12:43:38;9.30;;;3.10;;
80117;SDS011;69424;48.770;-1.564;2023-04-25T12:46:06;8.10;;;2.80;;
80117;SDS011;69424;48.770;-1.564;2023-04-25T12:48:35;9.00;;;2.60;;
80117;SDS011;69424;48.770;-1.564;2023-04-25T12:51:03;5.10;;;2.20;;
80117;SDS011;69424;48.770;-1.564;2023-04-25T12:53:31;7.80;;;2.90;;
80117;SDS011;69424;48.770;-1.564;2023-04-25T12:56:02;6.10;;;2.60;;
80117;SDS011;69424;48.770;-1.564;2023-04-25T12:58:30;6.50;;;2.60;;
80117;SDS011;69424;48.770;-1.564;2023-04-25T13:00:58;6.50;;;2.70;;
80117;SDS011;69424;48.770;-1.564;2023-04-25T13:03:26;8.50;;;2.90;;
80117;SDS011;69424;48.770;-1.564;2023-04-25T13:05:55;8.90;;;2.80;;
80117;SDS011;69424;48.770;-1.564;2023-04-25T13:08:23;6.40;;;2.90;;
80117;SDS011;69424;48.770;-1.564;2023-04-25T13:10:51;9.00;;;3.00;;
80117;SDS011;69424;48.770;-1.564;2023-04-25T13:13:19;8.00;;;3.10;;
80117;SDS011;69424;48.770;-1.564;2023-04-25T13:15:48;8.20;;;2.80;;
80117;SDS011;69424;48.770;-1.564;2023-04-25T13:18:16;8.20;;;2.60;;
80117;SDS011;69424;48.770;-1.564;2023-04-25T13:20:44;7.90;;;2.30;;
80117;SDS011;69424;48.770;-1.564;2023-04-25T13:23:13;7.20;;;2.60;;
80117;SDS011;69424;48.770;-1.564;2023-04-25T13:25:42;10.60;;;3.00;;
80117;SDS011;69424;48.770;-1.564;2023-04-25T13:28:10;6.90;;;2.90;;
80117;SDS011;69424;48.770;-1.564;2023-04-25T13:30:38;7.20;;;2.40;;
80117;SDS011;69424;48.770;-1.564;2023-04-25T13:33:06;8.20;;;2.70;;
80117;SDS011;69424;48.770;-1.564;2023-04-25T13:35:35;9.60;;;2.40;;
80117;SDS011;69424;48.770;-1.564;2023-04-25T13:38:05;8.30;;;3.10;;
80117;SDS011;69424;48.770;-1.564;2023-04-25T13:40:33;9.20;;;2.90;;
80117;SDS011;69424;48.770;-1.564;2023-04-25T13:43:01;10.40;;;2.90;;
80117;SDS011;69424;48.770;-1.564;2023-04-25T13:45:30;6.60;;;2.50;;
80117;SDS011;69424;48.770;-1.564;2023-04-25T13:48:00;7.10;;;3.00;;
80117;SDS011;69424;48.770;-1.564;2023-04-25T13:50:28;9.10;;;2.80;;
80117;SDS011;69424;48.770;-1.564;2023-04-25T13:52:57;7.20;;;3.10;;
80117;SDS011;69424;48.770;-1.564;2023-04-25T13:55:26;10.30;;;3.10;;
80117;SDS011;69424;48.770;-1.564;2023-04-25T13:57:54;9.40;;;3.60;;
80117;SDS011;69424;48.770;-1.564;2023-04-25T14:00:22;9.20;;;3.50;;
80117;SDS011;69424;48.770;-1.564;2023-04-25T14:02:50;6.80;;;2.80;;
80117;SDS011;69424;48.770;-1.564;2023-04-25T14:05:19;9.00;;;3.00;;
80117;SDS011;69424;48.770;-1.564;2023-04-25T14:07:47;7.90;;;3.30;;
80117;SDS011;69424;48.770;-1.564;2023-04-25T14:10:15;12.00;;;3.50;;
80117;SDS011;69424;48.770;-1.564;2023-04-25T14:12:43;7.60;;;2.80;;
80117;SDS011;69424;48.770;-1.564;2023-04-25T14:15:11;9.80;;;3.80;;
80117;SDS011;69424;48.770;-1.564;2023-04-25T14:17:39;9.20;;;3.10;;
80117;SDS011;69424;48.770;-1.564;2023-04-25T14:20:08;12.20;;;4.20;;
80117;SDS011;69424;48.770;-1.564;2023-04-25T14:22:38;9.90;;;3.40;;
80117;SDS011;69424;48.770;-1.564;2023-04-25T14:25:11;9.20;;;2.80;;
80117;SDS011;69424;48.770;-1.564;2023-04-25T14:27:39;9.00;;;2.80;;
80117;SDS011;69424;48.770;-1.564;2023-04-25T14:30:07;8.40;;;3.00;;
80117;SDS011;69424;48.770;-1.564;2023-04-25T14:32:37;10.30;;;3.20;;
80117;SDS011;69424;48.770;-1.564;2023-04-25T14:35:06;8.10;;;3.10;;
80117;SDS011;69424;48.770;-1.564;2023-04-25T14:37:34;13.90;;;3.00;;
80117;SDS011;69424;48.770;-1.564;2023-04-25T14:40:03;8.80;;;2.90;;
80117;SDS011;69424;48.770;-1.564;2023-04-25T14:42:32;8.30;;;3.10;;
80117;SDS011;69424;48.770;-1.564;2023-04-25T14:45:02;7.40;;;2.80;;
80117;SDS011;69424;48.770;-1.564;2023-04-25T14:47:32;8.80;;;3.50;;
80117;SDS011;69424;48.770;-1.564;2023-04-25T14:50:00;9.30;;;2.90;;
80117;SDS011;69424;48.770;-1.564;2023-04-25T14:52:29;9.20;;;3.90;;
80117;SDS011;69424;48.770;-1.564;2023-04-25T14:54:58;8.80;;;3.50;;
80117;SDS011;69424;48.770;-1.564;2023-04-25T14:57:32;7.10;;;3.20;;
80117;SDS011;69424;48.770;-1.564;2023-04-25T15:00:02;7.00;;;3.00;;
80117;SDS011;69424;48.770;-1.564;2023-04-25T15:05:01;9.80;;;3.20;;
80117;SDS011;69424;48.770;-1.564;2023-04-25T15:07:29;10.00;;;3.30;;
80117;SDS011;69424;48.770;-1.564;2023-04-25T15:09:58;8.30;;;3.70;;
80117;SDS011;69424;48.770;-1.564;2023-04-25T15:12:26;12.40;;;3.80;;
80117;SDS011;69424;48.770;-1.564;2023-04-25T15:14:55;8.00;;;4.00;;
80117;SDS011;69424;48.770;-1.564;2023-04-25T15:17:24;16.00;;;4.50;;
80117;SDS011;69424;48.770;-1.564;2023-04-25T15:19:52;8.60;;;3.30;;
80117;SDS011;69424;48.770;-1.564;2023-04-25T15:22:22;8.40;;;3.20;;
80117;SDS011;69424;48.770;-1.564;2023-04-25T15:24:50;9.10;;;3.60;;